Time;durP1;ratioP1;P1;durP2;ratioP2;P2;SDS_P1;SDS_P2;PMS_P1;PMS_P2;Temp;Humidity;BMP_temperature;BMP_pressure;BME280_temperature;BME280_humidity;BME280_pressure;Samples;Min_cycle;Max_cycle;Signal;HPM_P1;HPM_P2
2023/10/23 00:00:57;;;;;;;;;;;;;;;29.02;78.23;101212.53;5041044;28;66880;-39
2023/10/23 00:03:27;;;;;;;;;;;;;;;29.04;78.55;101215.91;5039340;28;69956;-39
2023/10/23 00:05:57;;;;;;;;;;;;;;;29.04;79.24;101215.91;5039032;28;66907;-40
2023/10/23 00:08:28;;;;;;;;;;;;;;;29.01;79.81;101217.13;5040163;28;70568;-40
2023/10/23 00:10:58;;;;;;;;;;;;;;;29.02;79.46;101228.75;5037079;28;67286;-41
2023/10/23 00:13:28;;;;;;;;;;;;;;;29.01;79.62;101232.50;5040095;28;70829;-43
2023/10/23 00:15:58;;;;;;;;;;;;;;;28.99;80.84;101234.56;5036089;28;66781;-43
2023/10/23 00:18:28;;;;;;;;;;;;;;;28.98;80.67;101222.91;5038380;28;70448;-41
2023/10/23 00:20:58;;;;;;;;;;;;;;;28.98;80.96;101222.09;5032864;28;66857;-39
2023/10/23 00:23:28;;;;;;;;;;;;;;;28.98;81.52;101224.78;5050152;28;69974;-43
2023/10/23 00:26:01;;;;;;;;;;;;;;;28.96;80.98;101225.81;5040015;28;66548;-39
2023/10/23 00:28:32;;;;;;;;;;;;;;;28.98;81.36;101219.38;5040061;28;70004;-39
2023/10/23 00:31:02;;;;;;;;;;;;;;;29.02;80.89;101217.94;5023198;28;66461;-43
2023/10/23 00:33:36;;;;;;;;;;;;;;;29.04;80.46;101222.16;5030912;28;70334;-41
2023/10/23 00:36:07;;;;;;;;;;;;;;;29.10;80.03;101215.13;5033659;28;67335;-42
2023/10/23 00:38:37;;;;;;;;;;;;;;;29.12;79.35;101213.06;5046174;28;70575;-42
2023/10/23 00:41:09;;;;;;;;;;;;;;;29.15;79.16;101218.06;5041677;28;67037;-42
2023/10/23 00:43:42;;;;;;;;;;;;;;;29.18;79.21;101228.44;5028174;28;70493;-41
2023/10/23 00:46:22;;;;;;;;;;;;;;;29.20;79.19;101225.53;5039700;28;66708;-41
2023/10/23 00:48:53;;;;;;;;;;;;;;;29.23;77.09;101231.38;5040746;28;70624;-41
2023/10/23 00:51:23;;;;;;;;;;;;;;;29.27;75.14;101221.00;5038355;28;67482;-40
2023/10/23 00:53:54;;;;;;;;;;;;;;;29.30;74.81;101226.00;5056546;28;69785;-40
2023/10/23 00:56:24;;;;;;;;;;;;;;;29.33;73.47;101217.50;5038975;28;66085;-41
2023/10/23 00:58:54;;;;;;;;;;;;;;;29.35;73.06;101218.97;5035233;28;70422;-41
2023/10/23 01:01:31;;;;;;;;;;;;;;;29.39;72.63;101227.47;5037375;28;66170;-40
2023/10/23 01:04:04;;;;;;;;;;;;;;;29.40;72.84;101227.31;5037816;28;70384;-40
2023/10/23 01:06:34;;;;;;;;;;;;;;;29.44;72.05;101210.66;5036843;28;66821;-40
2023/10/23 01:09:05;;;;;;;;;;;;;;;29.46;72.07;101219.41;5038334;28;70335;-41
2023/10/23 01:11:40;;;;;;;;;;;;;;;29.48;71.81;101217.34;5038163;28;66829;-40
2023/10/23 01:14:11;;;;;;;;;;;;;;;29.49;71.74;101219.00;5050838;28;71781;-41
2023/10/23 01:16:41;;;;;;;;;;;;;;;29.53;71.53;101217.56;5038716;28;66982;-40
2023/10/23 01:19:14;;;;;;;;;;;;;;;29.55;71.43;101223.59;5038208;28;70301;-40
2023/10/23 01:21:47;;;;;;;;;;;;;;;29.56;70.98;101225.25;5038326;28;66702;-39
2023/10/23 01:24:19;;;;;;;;;;;;;;;29.58;71.45;101224.00;5047596;28;70471;-40
2023/10/23 01:26:51;;;;;;;;;;;;;;;29.60;71.02;101227.34;5047520;28;66324;-40
2023/10/23 01:29:21;;;;;;;;;;;;;;;29.63;71.13;101226.16;5035118;28;69015;-40
2023/10/23 01:31:52;;;;;;;;;;;;;;;29.65;70.60;101224.09;5042343;28;66541;-40
2023/10/23 01:34:25;;;;;;;;;;;;;;;29.67;70.79;101231.97;5041219;28;70433;-40
2023/10/23 01:36:58;;;;;;;;;;;;;;;29.68;70.95;101236.38;5051558;28;66544;-40
2023/10/23 01:39:28;;;;;;;;;;;;;;;29.70;70.76;101236.97;5040337;28;69794;-41
2023/10/23 01:42:01;;;;;;;;;;;;;;;29.71;70.90;101244.91;5040018;28;66994;-40
2023/10/23 01:44:31;;;;;;;;;;;;;;;29.73;70.77;101245.53;5041562;28;70882;-40
2023/10/23 01:47:01;;;;;;;;;;;;;;;29.75;70.58;101248.00;5042803;28;66637;-40
2023/10/23 01:49:34;;;;;;;;;;;;;;;29.77;70.57;101248.66;5039460;28;69413;-40
2023/10/23 01:52:04;;;;;;;;;;;;;;;29.78;70.72;101245.75;5028491;28;66213;-40
2023/10/23 01:54:34;;;;;;;;;;;;;;;29.79;70.39;101250.13;5053034;28;69670;-40
2023/10/23 01:57:07;;;;;;;;;;;;;;;29.82;70.00;101255.13;5038413;28;66564;-40
2023/10/23 01:59:38;;;;;;;;;;;;;;;29.84;69.94;101252.22;5028308;28;69287;-40
2023/10/23 02:02:08;;;;;;;;;;;;;;;29.86;70.44;101252.00;5036102;28;66543;-41
2023/10/23 02:04:40;;;;;;;;;;;;;;;29.88;70.23;101249.94;5030811;28;70309;-40
2023/10/23 02:07:11;;;;;;;;;;;;;;;29.90;70.22;101248.69;5035729;28;66606;-41
2023/10/23 02:09:41;;;;;;;;;;;;;;;29.92;70.00;101246.63;5039441;28;70640;-40
2023/10/23 02:12:17;;;;;;;;;;;;;;;29.94;69.92;101238.28;5040779;28;66364;-40
2023/10/23 02:14:50;;;;;;;;;;;;;;;29.97;69.75;101240.56;5055990;28;69343;-40
2023/10/23 02:17:26;;;;;;;;;;;;;;;29.99;70.14;101242.03;5042277;28;65942;-40
2023/10/23 02:20:05;;;;;;;;;;;;;;;30.01;70.01;101233.75;5043348;28;69785;-40
2023/10/23 02:22:38;;;;;;;;;;;;;;;30.03;69.84;101231.63;5056746;28;67366;-40
2023/10/23 02:25:11;;;;;;;;;;;;;;;30.06;69.78;101231.22;5054711;28;68732;-40
2023/10/23 02:27:41;;;;;;;;;;;;;;;30.08;69.48;101231.84;5055517;28;66617;-40
2023/10/23 02:30:14;;;;;;;;;;;;;;;30.10;69.44;101232.50;5042834;28;70456;-40
2023/10/23 02:32:45;;;;;;;;;;;;;;;30.12;69.48;101230.41;5041641;28;66565;-40
2023/10/23 02:35:15;;;;;;;;;;;;;;;30.15;69.26;101226.47;5039776;28;70508;-41
2023/10/23 02:37:49;;;;;;;;;;;;;;;30.17;69.00;101218.94;5043366;28;66941;-40
2023/10/23 02:40:20;;;;;;;;;;;;;;;30.20;69.48;101232.06;5041745;28;70616;-40
2023/10/23 02:42:52;;;;;;;;;;;;;;;30.22;69.46;101227.31;5042778;28;65859;-40
2023/10/23 02:45:25;;;;;;;;;;;;;;;30.25;68.83;101233.13;5044015;28;70909;-40
2023/10/23 02:47:58;;;;;;;;;;;;;;;30.26;68.79;101221.28;5039942;28;66129;-42
2023/10/23 02:50:28;;;;;;;;;;;;;;;30.30;68.70;101220.88;5043467;28;69956;-40
2023/10/23 02:53:06;;;;;;;;;;;;;;;30.32;68.69;101218.81;5041285;28;66689;-40
2023/10/23 02:55:36;;;;;;;;;;;;;;;30.35;68.72;101229.22;5040520;28;70333;-41
2023/10/23 02:58:09;;;;;;;;;;;;;;;30.38;68.89;101212.53;5041704;28;66645;-40
2023/10/23 03:00:42;;;;;;;;;;;;;;;30.40;69.00;101196.94;5040567;28;68649;-40
2023/10/23 03:03:25;;;;;;;;;;;;;;;30.43;68.67;101201.94;5041869;28;66106;-41
2023/10/23 03:05:55;;;;;;;;;;;;;;;30.45;68.51;101192.56;5040994;28;70419;-40
2023/10/23 03:08:25;;;;;;;;;;;;;;;30.48;68.68;101186.72;5054695;28;66391;-40
2023/10/23 03:10:56;;;;;;;;;;;;;;;30.51;68.80;101188.19;5041923;28;70672;-40
2023/10/23 03:13:26;;;;;;;;;;;;;;;30.54;68.26;101185.03;5039020;28;66205;-40
2023/10/23 03:16:14;;;;;;;;;;;;;;;30.57;68.58;101184.63;5047977;28;70194;-40
2023/10/23 03:18:47;;;;;;;;;;;;;;;30.60;68.15;101189.63;5036798;28;66819;-42
2023/10/23 03:21:18;;;;;;;;;;;;;;;30.62;68.38;101182.13;5038835;28;70371;-40
2023/10/23 03:23:53;;;;;;;;;;;;;;;30.67;68.00;101184.16;5037326;28;66859;-40
2023/10/23 03:26:36;;;;;;;;;;;;;;;30.69;67.92;101187.50;5015630;28;69790;-41
2023/10/23 03:29:08;;;;;;;;;;;;;;;30.72;68.46;101182.50;5031968;28;65411;-41
2023/10/23 03:31:38;;;;;;;;;;;;;;;30.74;67.86;101182.28;5037563;28;70631;-41
2023/10/23 03:34:11;;;;;;;;;;;;;;;30.76;68.21;101179.34;5036160;28;66568;-40
2023/10/23 03:36:45;;;;;;;;;;;;;;;30.80;68.06;101177.94;5031597;28;70280;-40
2023/10/23 03:39:14;;;;;;;;;;;;;;;30.81;68.04;101164.16;5038230;28;66572;-39
2023/10/23 03:41:54;;;;;;;;;;;;;;;30.85;67.91;101167.28;5041595;28;70371;-40
2023/10/23 03:44:26;;;;;;;;;;;;;;;30.86;67.72;101167.06;5038278;28;66638;-40
2023/10/23 03:46:56;;;;;;;;;;;;;;;30.89;68.05;101161.22;5038946;28;70365;-40
2023/10/23 03:49:41;;;;;;;;;;;;;;;30.91;67.73;101142.88;5041230;28;66956;-41
2023/10/23 03:52:14;;;;;;;;;;;;;;;30.93;67.49;101145.38;5040090;28;69751;-40
2023/10/23 03:54:55;;;;;;;;;;;;;;;30.96;68.05;101150.38;5040705;28;66513;-40
2023/10/23 03:57:28;;;;;;;;;;;;;;;30.97;68.00;101135.78;5037656;28;70344;-40
2023/10/23 04:00:02;;;;;;;;;;;;;;;30.99;67.72;101133.69;5039475;28;66062;-41
2023/10/23 04:02:42;;;;;;;;;;;;;;;31.01;67.52;101131.59;5041850;28;70638;-40
2023/10/23 04:05:12;;;;;;;;;;;;;;;31.03;67.63;101126.78;5036690;28;66052;-41
2023/10/23 04:07:43;;;;;;;;;;;;;;;31.04;67.47;101120.34;5036891;28;70468;-41
2023/10/23 04:10:13;;;;;;;;;;;;;;;31.07;67.74;101117.19;5041790;28;66699;-40
2023/10/23 04:12:44;;;;;;;;;;;;;;;31.09;67.52;101111.53;5043958;28;70402;-40
2023/10/23 04:15:17;;;;;;;;;;;;;;;31.11;67.57;101104.03;5041218;28;67126;-40
2023/10/23 04:17:47;;;;;;;;;;;;;;;31.12;67.51;101103.81;5041343;28;69816;-40
2023/10/23 04:20:21;;;;;;;;;;;;;;;31.13;67.06;101100.06;5042696;28;65917;-41
2023/10/23 04:22:51;;;;;;;;;;;;;;;31.14;67.33;101088.16;5038821;28;69765;-40
2023/10/23 04:25:21;;;;;;;;;;;;;;;31.18;67.02;101088.59;5040034;28;65870;-42
2023/10/23 04:27:51;;;;;;;;;;;;;;;31.19;67.06;101084.00;5033274;28;70306;-40
2023/10/23 04:30:24;;;;;;;;;;;;;;;31.19;67.14;101079.38;5037676;28;67332;-41
2023/10/23 04:33:24;;;;;;;;;;;;;;;31.21;67.18;101077.31;5036440;28;69927;-41
2023/10/23 04:35:59;;;;;;;;;;;;;;;31.23;66.89;101077.91;5039250;28;65746;-40
2023/10/23 04:38:31;;;;;;;;;;;;;;;31.25;66.77;101074.97;5039838;28;70253;-40
2023/10/23 04:41:01;;;;;;;;;;;;;;;31.26;66.84;101063.06;5026872;28;66194;-40
2023/10/23 04:43:33;;;;;;;;;;;;;;;31.27;66.84;101071.00;5039025;28;70912;-40
2023/10/23 04:46:06;;;;;;;;;;;;;;;31.29;66.40;101073.50;5033021;28;66542;-41
2023/10/23 04:48:39;;;;;;;;;;;;;;;31.31;66.62;101076.81;5039098;28;70494;-40
2023/10/23 04:51:12;;;;;;;;;;;;;;;31.31;66.54;101065.97;5038317;28;65684;-40
2023/10/23 04:53:49;;;;;;;;;;;;;;;31.33;66.42;101053.03;5040561;28;70051;-40
2023/10/23 04:56:19;;;;;;;;;;;;;;;31.34;67.08;101060.97;5040525;28;66764;-41
2023/10/23 04:58:52;;;;;;;;;;;;;;;31.34;66.87;101049.25;5028865;28;70233;-40
2023/10/23 05:01:28;;;;;;;;;;;;;;;31.35;66.73;101040.09;5052779;28;66414;-40
2023/10/23 05:04:02;;;;;;;;;;;;;;;31.37;66.94;101027.16;5039160;28;69979;-41
2023/10/23 05:06:36;;;;;;;;;;;;;;;31.36;67.07;101025.53;5040611;28;66082;-41
2023/10/23 05:09:06;;;;;;;;;;;;;;;31.37;67.08;101008.19;5039146;28;69778;-41
2023/10/23 05:11:36;;;;;;;;;;;;;;;31.38;66.91;101007.16;5038171;28;66856;-41
2023/10/23 05:14:07;;;;;;;;;;;;;;;31.38;67.09;100991.72;5039317;28;70011;-41
2023/10/23 05:16:37;;;;;;;;;;;;;;;31.13;67.02;100942.91;5038457;28;66462;-41
2023/10/23 05:19:10;;;;;;;;;;;;;;;31.39;66.79;100979.00;5039537;28;70374;-41
2023/10/23 05:21:40;;;;;;;;;;;;;;;31.39;67.01;100973.56;5039133;28;66533;-41
2023/10/23 05:24:14;;;;;;;;;;;;;;;31.39;66.72;100962.72;5036573;28;69993;-42
2023/10/23 05:26:44;;;;;;;;;;;;;;;31.40;67.00;100958.97;5037260;28;66923;-40
2023/10/23 05:29:17;;;;;;;;;;;;;;;31.39;66.70;100954.59;5040439;28;70300;-40
2023/10/23 05:31:47;;;;;;;;;;;;;;;31.39;67.26;100943.75;5032801;28;66933;-41
2023/10/23 05:34:26;;;;;;;;;;;;;;;31.38;66.99;100932.09;5038809;28;70006;-42
2023/10/23 05:36:56;;;;;;;;;;;;;;;31.40;66.95;100918.31;5026178;28;65478;-40
2023/10/23 05:39:49;;;;;;;;;;;;;;;31.40;67.05;100923.75;5030738;28;70672;-40
2023/10/23 05:42:19;;;;;;;;;;;;;;;31.39;67.14;100909.34;5035144;28;65861;-40
2023/10/23 05:44:50;;;;;;;;;;;;;;;31.39;67.13;100911.22;5040750;28;70633;-40
2023/10/23 05:47:43;;;;;;;;;;;;;;;31.40;67.13;100902.06;5039554;28;66000;-40
2023/10/23 05:50:17;;;;;;;;;;;;;;;31.39;67.43;100898.50;5044801;28;69114;-41
2023/10/23 05:52:49;;;;;;;;;;;;;;;31.39;67.11;100894.97;5044043;28;65910;-40
2023/10/23 05:55:20;;;;;;;;;;;;;;;31.39;67.05;100878.69;5043628;28;70596;-40
2023/10/23 05:57:52;;;;;;;;;;;;;;;31.39;67.04;100871.38;5040632;28;66476;-41
2023/10/23 06:00:26;;;;;;;;;;;;;;;31.39;67.08;100868.69;5035548;28;69711;-42
2023/10/23 06:02:57;;;;;;;;;;;;;;;31.39;67.32;100859.72;5031567;28;66659;-41
2023/10/23 06:05:27;;;;;;;;;;;;;;;31.39;67.46;100857.00;5044249;28;69654;-41
2023/10/23 06:07:57;;;;;;;;;;;;;;;31.40;67.42;100853.28;5043980;28;66846;-44
2023/10/23 06:10:30;;;;;;;;;;;;;;;31.41;67.45;100865.75;5025669;28;69274;-40
2023/10/23 06:13:03;;;;;;;;;;;;;;;31.39;67.47;100871.38;5043835;28;66253;-40
2023/10/23 06:15:45;;;;;;;;;;;;;;;31.41;67.27;100860.34;5039023;28;70211;-41
2023/10/23 06:18:36;;;;;;;;;;;;;;;31.41;66.99;100844.06;5017912;28;66903;-41
2023/10/23 06:21:09;;;;;;;;;;;;;;;31.43;67.33;100846.56;5031487;28;70658;-40
2023/10/23 06:23:59;;;;;;;;;;;;;;;31.44;67.19;100849.03;5029074;28;66104;-41
2023/10/23 06:26:35;;;;;;;;;;;;;;;31.46;67.17;100849.66;5040996;28;69883;-41
2023/10/23 06:29:08;;;;;;;;;;;;;;;31.47;67.14;100843.16;5033838;28;66719;-42
2023/10/23 06:31:41;;;;;;;;;;;;;;;31.49;67.43;100830.22;5040286;28;70424;-43
2023/10/23 06:34:23;;;;;;;;;;;;;;;31.49;67.52;100811.25;5044657;28;66007;-42
2023/10/23 06:36:56;;;;;;;;;;;;;;;31.52;67.11;100801.84;5038335;28;70221;-42
2023/10/23 06:39:26;;;;;;;;;;;;;;;31.53;67.16;100776.38;5041998;28;66029;-40
2023/10/23 06:41:57;;;;;;;;;;;;;;;31.54;67.40;100765.31;5038996;28;70700;-40
2023/10/23 06:44:32;;;;;;;;;;;;;;;31.56;67.41;100776.72;5037158;28;66584;-42
2023/10/23 06:47:05;;;;;;;;;;;;;;;31.57;67.16;100775.69;5030875;28;69930;-41
2023/10/23 06:49:38;;;;;;;;;;;;;;;31.59;67.40;100770.88;5039766;28;66889;-40
2023/10/23 06:52:13;;;;;;;;;;;;;;;31.60;67.32;100753.53;5043053;28;69947;-40
2023/10/23 06:54:53;;;;;;;;;;;;;;;31.62;67.25;100758.72;5042392;28;65874;-40
2023/10/23 06:57:24;;;;;;;;;;;;;;;31.65;67.04;100768.28;5040219;28;70500;-40
2023/10/23 06:59:59;;;;;;;;;;;;;;;31.66;67.23;100765.38;5042448;28;66675;-40
2023/10/23 07:02:30;;;;;;;;;;;;;;;31.67;67.23;100761.59;5042410;28;69859;-41
2023/10/23 07:05:21;;;;;;;;;;;;;;;31.70;67.25;100754.88;5042743;28;66981;-41
2023/10/23 07:07:51;;;;;;;;;;;;;;;31.69;67.10;100759.47;5042817;28;70503;-40
2023/10/23 07:10:24;;;;;;;;;;;;;;;31.72;67.20;100769.03;5027908;28;65865;-41
2023/10/23 07:13:05;;;;;;;;;;;;;;;31.75;67.03;100768.59;5041960;28;69987;-41
2023/10/23 07:15:53;;;;;;;;;;;;;;;31.76;66.93;100770.22;5033027;28;67023;-39
2023/10/23 07:18:23;;;;;;;;;;;;;;;31.78;66.78;100768.13;5042202;28;69351;-40
2023/10/23 07:21:03;;;;;;;;;;;;;;;31.77;66.94;100761.88;5041955;28;66024;-41
2023/10/23 07:23:33;;;;;;;;;;;;;;;31.79;66.81;100758.94;5041476;28;70323;-40
2023/10/23 07:26:16;;;;;;;;;;;;;;;31.81;66.70;100764.94;5042603;28;65977;-41
2023/10/23 07:28:47;;;;;;;;;;;;;;;31.81;66.68;100775.78;5043304;28;70096;-41
2023/10/23 07:31:23;;;;;;;;;;;;;;;31.82;66.63;100772.03;5045010;28;65746;-41
2023/10/23 07:33:54;;;;;;;;;;;;;;;31.84;66.56;100775.34;5042940;28;69802;-41
2023/10/23 07:36:24;;;;;;;;;;;;;;;31.86;66.54;100770.50;5042775;28;66533;-41
2023/10/23 07:38:54;;;;;;;;;;;;;;;31.86;66.59;100775.94;5040336;28;70369;-41
2023/10/23 07:41:44;;;;;;;;;;;;;;;31.85;66.78;100774.28;5037747;28;65679;-40
2023/10/23 07:44:16;;;;;;;;;;;;;;;31.87;66.65;100783.00;5039749;28;70798;-40
2023/10/23 07:46:46;;;;;;;;;;;;;;;31.88;66.57;100787.41;5042057;28;66213;-40
2023/10/23 07:49:17;;;;;;;;;;;;;;;31.88;66.50;100798.25;5041385;28;70513;-41
2023/10/23 07:51:53;;;;;;;;;;;;;;;31.89;66.68;100799.91;5046951;28;65904;-40
2023/10/23 07:54:23;;;;;;;;;;;;;;;31.88;66.59;100795.53;5041538;28;70173;-40
2023/10/23 07:56:57;;;;;;;;;;;;;;;31.89;66.70;100796.34;5041088;28;66559;-39
2023/10/23 07:59:31;;;;;;;;;;;;;;;31.90;66.40;100798.00;5039505;28;70343;-42
2023/10/23 08:02:01;;;;;;;;;;;;;;;31.91;66.49;100815.94;5040361;28;66664;-46
2023/10/23 08:04:37;;;;;;;;;;;;;;;31.90;66.39;100836.84;5037092;28;70620;-40
2023/10/23 08:07:13;;;;;;;;;;;;;;;31.90;66.49;100834.13;5041224;28;66192;-40
2023/10/23 08:09:44;;;;;;;;;;;;;;;31.90;66.49;100831.41;5048792;28;70421;-40
2023/10/23 08:12:14;;;;;;;;;;;;;;;31.89;66.52;100840.59;5037717;28;65958;-41
2023/10/23 08:14:44;;;;;;;;;;;;;;;31.89;66.73;100846.00;5033435;28;70311;-40
2023/10/23 08:17:14;;;;;;;;;;;;;;;31.89;66.61;100856.84;5043948;28;65347;-41
2023/10/23 08:20:05;;;;;;;;;;;;;;;31.88;66.66;100855.22;5050689;28;69741;-49
2023/10/23 08:22:35;;;;;;;;;;;;;;;31.87;66.85;100853.53;5037422;28;65485;-41
2023/10/23 08:25:06;;;;;;;;;;;;;;;31.87;66.81;100831.00;5036116;28;69823;-42
2023/10/23 08:27:39;;;;;;;;;;;;;;;31.86;66.86;100823.94;5037348;28;65666;-42
2023/10/23 08:30:10;;;;;;;;;;;;;;;31.83;67.08;100845.03;5034502;28;70261;-42
2023/10/23 08:32:40;;;;;;;;;;;;;;;31.82;67.07;100858.84;5039918;28;66857;-47
2023/10/23 08:35:22;;;;;;;;;;;;;;;31.82;67.14;100891.41;5036013;28;70633;-42
2023/10/23 08:37:55;;;;;;;;;;;;;;;31.79;67.17;100908.94;5034432;28;67033;-41
2023/10/23 08:40:29;;;;;;;;;;;;;;;31.80;67.38;100928.75;5040282;28;70696;-41
2023/10/23 08:43:00;;;;;;;;;;;;;;;31.78;67.45;100941.69;5040790;28;66973;-39
2023/10/23 08:45:31;;;;;;;;;;;;;;;31.77;67.51;100964.47;5027893;28;70530;-40
2023/10/23 08:48:01;;;;;;;;;;;;;;;31.75;67.78;100969.28;5038802;28;66754;-40
2023/10/23 08:50:32;;;;;;;;;;;;;;;31.73;67.78;100976.81;5040136;28;70550;-39
2023/10/23 08:53:14;;;;;;;;;;;;;;;31.71;67.63;100978.94;5037530;28;65904;-40
2023/10/23 08:55:45;;;;;;;;;;;;;;;31.69;67.90;100978.31;5038389;28;69909;-40
2023/10/23 08:58:16;;;;;;;;;;;;;;;31.66;67.77;100982.31;5041298;28;66975;-42
2023/10/23 09:00:46;;;;;;;;;;;;;;;31.64;67.89;100965.41;5022037;28;68973;-40
2023/10/23 09:03:29;;;;;;;;;;;;;;;31.61;67.88;100971.28;5038301;28;65819;-40
2023/10/23 09:06:22;;;;;;;;;;;;;;;31.58;68.07;100969.84;5036016;28;70362;-40
2023/10/23 09:08:52;;;;;;;;;;;;;;;31.56;67.93;100969.25;5027947;28;66769;-41
2023/10/23 09:11:45;;;;;;;;;;;;;;;31.52;68.09;100970.75;5039960;28;70655;-41
2023/10/23 09:14:23;;;;;;;;;;;;;;;31.49;68.09;100976.63;5037940;28;65888;-40
2023/10/23 09:16:57;;;;;;;;;;;;;;;31.47;68.07;100972.47;5028666;28;69936;-41
2023/10/23 09:19:36;;;;;;;;;;;;;;;31.21;70.81;100968.91;5030762;28;66561;-42
2023/10/23 09:22:10;;;;;;;;;;;;;;;31.03;72.47;100961.50;5033328;28;70006;-41
2023/10/23 09:24:41;;;;;;;;;;;;;;;30.91;73.03;100963.28;5050910;28;65692;-42
2023/10/23 09:27:14;;;;;;;;;;;;;;;30.99;72.45;100965.72;5035255;28;69639;-41
2023/10/23 09:29:44;;;;;;;;;;;;;;;31.06;70.84;100961.06;5040649;28;65643;-43
2023/10/23 09:32:14;;;;;;;;;;;;;;;31.09;70.83;100960.66;5026829;28;70502;-42
2023/10/23 09:34:44;;;;;;;;;;;;;;;31.09;70.50;100968.78;5032178;28;66257;-41
2023/10/23 09:37:14;;;;;;;;;;;;;;;31.09;70.15;100974.22;5042461;28;70319;-42
2023/10/23 09:39:47;;;;;;;;;;;;;;;31.09;70.15;100981.47;5042129;28;66217;-42
2023/10/23 09:42:18;;;;;;;;;;;;;;;31.07;69.72;100978.19;5040385;28;70335;-42
2023/10/23 09:44:58;;;;;;;;;;;;;;;31.06;69.83;100976.50;5039348;28;65697;-42
2023/10/23 09:47:29;;;;;;;;;;;;;;;31.03;70.17;100983.19;5038237;28;68774;-43
2023/10/23 09:50:01;;;;;;;;;;;;;;;31.01;69.88;100979.91;5039569;28;66347;-41
2023/10/23 09:52:34;;;;;;;;;;;;;;;30.98;69.61;100980.34;5037816;28;70483;-42
2023/10/23 09:55:09;;;;;;;;;;;;;;;30.97;69.84;100989.50;5039918;28;65784;-41
2023/10/23 09:57:50;;;;;;;;;;;;;;;30.94;70.05;101000.75;5042004;28;70653;-41
2023/10/23 10:00:26;;;;;;;;;;;;;;;30.91;69.85;101001.19;5041035;28;66601;-41
2023/10/23 10:03:04;;;;;;;;;;;;;;;30.87;70.23;100995.41;5038018;28;70217;-42
2023/10/23 10:05:34;;;;;;;;;;;;;;;30.84;69.83;100986.84;5041716;28;66151;-41
2023/10/23 10:08:08;;;;;;;;;;;;;;;30.81;70.23;100998.13;5044944;28;69961;-41
2023/10/23 10:10:41;;;;;;;;;;;;;;;30.78;70.17;100996.66;5040152;28;66616;-42
2023/10/23 10:13:12;;;;;;;;;;;;;;;30.75;70.27;100997.09;5038022;28;69947;-42
2023/10/23 10:15:46;;;;;;;;;;;;;;;30.72;70.28;101002.94;5044793;28;67371;-42
2023/10/23 10:18:16;;;;;;;;;;;;;;;30.68;70.58;100999.84;5044374;28;69542;-42
2023/10/23 10:20:48;;;;;;;;;;;;;;;30.66;70.60;101001.94;5040159;28;66523;-42
2023/10/23 10:23:19;;;;;;;;;;;;;;;30.64;70.35;101011.31;5056387;28;69383;-42
2023/10/23 10:25:50;;;;;;;;;;;;;;;30.60;70.18;101019.03;5039881;28;67003;-42
2023/10/23 10:28:26;;;;;;;;;;;;;;;30.57;70.11;101022.19;5041757;28;69916;-41
2023/10/23 10:30:57;;;;;;;;;;;;;;;30.55;70.50;101039.69;5052097;28;65872;-41
2023/10/23 10:33:31;;;;;;;;;;;;;;;30.51;70.39;101050.13;5037460;28;70865;-42
2023/10/23 10:36:26;;;;;;;;;;;;;;;30.47;70.68;101043.44;5040466;28;66866;-43
2023/10/23 10:39:17;;;;;;;;;;;;;;;30.45;70.58;101046.38;5046411;28;69529;-42
2023/10/23 10:41:47;;;;;;;;;;;;;;;30.42;70.25;101046.81;5037414;28;66988;-42
2023/10/23 10:44:22;;;;;;;;;;;;;;;30.41;71.65;101063.25;5035217;28;70459;-42
2023/10/23 10:46:54;;;;;;;;;;;;;;;30.40;71.50;101061.59;5041391;28;66167;-42
2023/10/23 10:49:31;;;;;;;;;;;;;;;30.37;71.65;101059.28;5039882;28;70068;-41
2023/10/23 10:52:15;;;;;;;;;;;;;;;30.05;75.00;101013.16;5032365;28;66840;-41
2023/10/23 10:54:45;;;;;;;;;;;;;;;30.22;76.03;101049.56;5036774;28;69999;-41
2023/10/23 10:57:19;;;;;;;;;;;;;;;30.16;76.71;101042.25;5035227;28;66154;-41
2023/10/23 10:59:56;;;;;;;;;;;;;;;30.12;77.38;101051.84;5042400;28;69414;-43
2023/10/23 11:02:26;;;;;;;;;;;;;;;30.09;77.34;101057.69;5040578;28;65565;-41
2023/10/23 11:04:56;;;;;;;;;;;;;;;30.05;77.98;101043.72;5040127;28;70426;-42
2023/10/23 11:07:27;;;;;;;;;;;;;;;30.04;79.09;101035.84;5041337;28;65372;-42
2023/10/23 11:09:57;;;;;;;;;;;;;;;30.04;79.45;101030.44;5042112;28;69801;-41
2023/10/23 11:12:28;;;;;;;;;;;;;;;30.01;79.70;101017.34;5042095;28;65818;-41
2023/10/23 11:14:59;;;;;;;;;;;;;;;29.98;79.76;101024.00;5042202;28;70280;-42
2023/10/23 11:17:32;;;;;;;;;;;;;;;29.99;80.07;101016.72;5037840;28;65950;-40
2023/10/23 11:20:13;;;;;;;;;;;;;;;29.97;80.24;101018.78;5038311;28;70315;-42
2023/10/23 11:22:44;;;;;;;;;;;;;;;29.98;79.79;101006.94;5041953;28;65651;-41
2023/10/23 11:25:15;;;;;;;;;;;;;;;29.98;79.03;100996.13;5033312;28;69401;-41
2023/10/23 11:27:51;;;;;;;;;;;;;;;30.00;77.84;100994.03;5041551;28;66742;-42
2023/10/23 11:30:46;;;;;;;;;;;;;;;30.02;76.88;100987.34;5030418;28;69217;-42
2023/10/23 11:33:18;;;;;;;;;;;;;;;30.03;76.76;100994.44;5040724;28;66582;-42
2023/10/23 11:35:49;;;;;;;;;;;;;;;30.04;75.90;100990.69;5041107;28;70647;-42
2023/10/23 11:38:24;;;;;;;;;;;;;;;30.06;75.53;101003.97;5041713;28;66645;-41
2023/10/23 11:40:54;;;;;;;;;;;;;;;30.05;75.52;101005.88;5029494;28;70324;-42
2023/10/23 11:43:24;;;;;;;;;;;;;;;30.05;74.97;101007.75;5042485;28;66286;-42
2023/10/23 11:45:54;;;;;;;;;;;;;;;30.05;74.78;101007.75;5041812;28;68984;-42
2023/10/23 11:48:24;;;;;;;;;;;;;;;30.05;74.85;100992.34;5040893;28;66654;-43
2023/10/23 11:50:54;;;;;;;;;;;;;;;30.04;74.88;100989.88;5040995;28;69926;-41
2023/10/23 11:53:32;;;;;;;;;;;;;;;30.04;74.67;100981.75;5041920;28;67242;-42
2023/10/23 11:56:03;;;;;;;;;;;;;;;30.04;74.43;100979.03;5041944;28;70676;-42
2023/10/23 11:58:36;;;;;;;;;;;;;;;30.03;74.42;100978.22;5042463;28;66857;-41
2023/10/23 12:01:06;;;;;;;;;;;;;;;30.03;74.18;100982.78;5041414;28;69904;-42
2023/10/23 12:03:41;;;;;;;;;;;;;;;30.02;74.38;100991.94;5041827;28;66528;-41
2023/10/23 12:06:11;;;;;;;;;;;;;;;30.01;73.70;100998.41;5041989;28;70007;-41
2023/10/23 12:08:41;;;;;;;;;;;;;;;30.01;73.63;100995.69;5039408;28;66836;-40
2023/10/23 12:11:18;;;;;;;;;;;;;;;30.01;74.25;101001.09;5040595;28;69857;-41
2023/10/23 12:13:51;;;;;;;;;;;;;;;30.01;73.88;100995.69;5036082;28;66365;-42
2023/10/23 12:16:24;;;;;;;;;;;;;;;30.01;74.05;100993.81;5042427;28;69728;-42
2023/10/23 12:18:54;;;;;;;;;;;;;;;30.01;73.85;100998.41;5049217;28;66169;-42
2023/10/23 12:21:30;;;;;;;;;;;;;;;30.00;74.20;101002.13;5040685;28;69431;-41
2023/10/23 12:24:01;;;;;;;;;;;;;;;30.00;73.94;101012.94;5038210;28;67738;-42
2023/10/23 12:26:36;;;;;;;;;;;;;;;29.98;73.69;101013.19;5041238;28;70474;-42
2023/10/23 12:29:09;;;;;;;;;;;;;;;29.99;73.66;101019.41;5033721;28;65382;-42
2023/10/23 12:31:43;;;;;;;;;;;;;;;29.98;73.83;101017.75;5045770;28;70339;-42
2023/10/23 12:34:35;;;;;;;;;;;;;;;29.96;74.09;101026.06;5037017;28;66977;-46
2023/10/23 12:37:11;;;;;;;;;;;;;;;29.97;73.47;101032.31;5038516;28;71126;-41
2023/10/23 12:39:42;;;;;;;;;;;;;;;29.96;73.81;101030.66;5039048;28;65734;-43
2023/10/23 12:42:14;;;;;;;;;;;;;;;29.95;73.71;101039.78;5041864;28;69424;-42
2023/10/23 12:44:48;;;;;;;;;;;;;;;29.95;73.97;101034.38;5038686;28;65945;-42
2023/10/23 12:47:24;;;;;;;;;;;;;;;29.94;73.48;101043.56;5041210;28;69336;-41
2023/10/23 12:49:54;;;;;;;;;;;;;;;29.93;73.82;101047.31;5039458;28;65796;-42
2023/10/23 12:52:24;;;;;;;;;;;;;;;29.93;73.86;101041.91;5041953;28;70225;-42
2023/10/23 12:55:00;;;;;;;;;;;;;;;29.92;73.45;101040.22;5041884;28;66888;-42
2023/10/23 12:57:31;;;;;;;;;;;;;;;29.92;73.92;101037.50;5041639;28;69805;-43
2023/10/23 13:00:06;;;;;;;;;;;;;;;29.90;73.60;101048.56;5040994;28;66048;-41
2023/10/23 13:02:39;;;;;;;;;;;;;;;29.92;73.29;101061.84;5040798;28;69841;-41
2023/10/23 13:05:15;;;;;;;;;;;;;;;29.89;73.53;101065.81;5028440;28;66427;-43
2023/10/23 13:07:45;;;;;;;;;;;;;;;29.84;77.12;101069.16;5027555;28;69159;-41